sensor_id;sensor_type;location;lat;lon;timestamp;pressure;altitude;pressure_sealevel;temperature;humidity
82375;BME280;72005;50.496;15.798;2024-01-07T00:01:02;94989.09;;;-2.92;97.32
82375;BME280;72005;50.496;15.798;2024-01-07T00:03:48;94986.53;;;-2.92;97.24
82375;BME280;72005;50.496;15.798;2024-01-07T00:06:14;94984.31;;;-2.95;96.72
82375;BME280;72005;50.496;15.798;2024-01-07T00:08:39;94991.03;;;-2.94;96.92
82375;BME280;72005;50.496;15.798;2024-01-07T00:11:05;94996.94;;;-3.00;96.57
82375;BME280;72005;50.496;15.798;2024-01-07T00:13:31;94997.31;;;-3.03;96.61
82375;BME280;72005;50.496;15.798;2024-01-07T00:15:56;94992.16;;;-3.03;97.10
82375;BME280;72005;50.496;15.798;2024-01-07T00:18:22;94976.28;;;-3.13;96.85
82375;BME280;72005;50.496;15.798;2024-01-07T00:20:50;94982.59;;;-3.16;97.19
82375;BME280;72005;50.496;15.798;2024-01-07T00:23:15;94981.34;;;-3.20;97.39
82375;BME280;72005;50.496;15.798;2024-01-07T00:25:41;95000.72;;;-3.18;97.37
82375;BME280;72005;50.496;15.798;2024-01-07T00:28:07;95003.41;;;-3.26;97.53
82375;BME280;72005;50.496;15.798;2024-01-07T00:30:32;94991.16;;;-3.30;97.92
82375;BME280;72005;50.496;15.798;2024-01-07T00:32:58;95006.09;;;-3.34;97.56
82375;BME280;72005;50.496;15.798;2024-01-07T00:35:24;95017.91;;;-3.40;97.63
82375;BME280;72005;50.496;15.798;2024-01-07T00:37:50;95011.13;;;-3.47;97.82
82375;BME280;72005;50.496;15.798;2024-01-07T00:40:16;95011.13;;;-3.47;97.61
82375;BME280;72005;50.496;15.798;2024-01-07T00:42:42;95017.22;;;-3.48;97.50
82375;BME280;72005;50.496;15.798;2024-01-07T00:45:08;95006.34;;;-3.50;97.74
82375;BME280;72005;50.496;15.798;2024-01-07T00:47:34;95017.94;;;-3.54;97.59
82375;BME280;72005;50.496;15.798;2024-01-07T00:50:00;94999.81;;;-3.53;97.58
82375;BME280;72005;50.496;15.798;2024-01-07T00:52:25;95013.19;;;-3.57;97.23
82375;BME280;72005;50.496;15.798;2024-01-07T00:54:51;95018.16;;;-3.56;97.20
82375;BME280;72005;50.496;15.798;2024-01-07T00:57:17;95014.16;;;-3.58;96.91
82375;BME280;72005;50.496;15.798;2024-01-07T00:59:42;95019.47;;;-3.60;96.35
82375;BME280;72005;50.496;15.798;2024-01-07T01:02:08;95022.84;;;-3.59;96.31
82375;BME280;72005;50.496;15.798;2024-01-07T01:04:34;95021.50;;;-3.55;96.49
82375;BME280;72005;50.496;15.798;2024-01-07T01:07:03;95039.03;;;-3.59;96.13
82375;BME280;72005;50.496;15.798;2024-01-07T01:09:29;95021.25;;;-3.60;95.95
82375;BME280;72005;50.496;15.798;2024-01-07T01:11:55;95019.66;;;-3.61;95.93
82375;BME280;72005;50.496;15.798;2024-01-07T01:14:20;95029.56;;;-3.58;95.89
82375;BME280;72005;50.496;15.798;2024-01-07T01:16:47;95033.44;;;-3.63;95.50
82375;BME280;72005;50.496;15.798;2024-01-07T01:19:12;95034.06;;;-3.60;95.18
82375;BME280;72005;50.496;15.798;2024-01-07T01:21:38;95035.41;;;-3.65;95.32
82375;BME280;72005;50.496;15.798;2024-01-07T01:24:04;95037.00;;;-3.64;95.58
82375;BME280;72005;50.496;15.798;2024-01-07T01:26:30;95039.75;;;-3.65;95.43
82375;BME280;72005;50.496;15.798;2024-01-07T01:28:55;95032.22;;;-3.67;95.16
82375;BME280;72005;50.496;15.798;2024-01-07T01:31:21;95035.78;;;-3.68;95.35
82375;BME280;72005;50.496;15.798;2024-01-07T01:33:47;95038.94;;;-3.66;95.41
82375;BME280;72005;50.496;15.798;2024-01-07T01:36:12;95048.63;;;-3.68;95.10
82375;BME280;72005;50.496;15.798;2024-01-07T01:38:38;95047.38;;;-3.72;95.13
82375;BME280;72005;50.496;15.798;2024-01-07T01:41:04;95036.94;;;-3.70;95.37
82375;BME280;72005;50.496;15.798;2024-01-07T01:43:29;95044.00;;;-3.72;95.05
82375;BME280;72005;50.496;15.798;2024-01-07T01:45:56;95048.78;;;-3.69;95.25
82375;BME280;72005;50.496;15.798;2024-01-07T01:48:26;95070.09;;;-3.69;94.48
82375;BME280;72005;50.496;15.798;2024-01-07T01:50:53;95055.06;;;-3.72;94.52
82375;BME280;72005;50.496;15.798;2024-01-07T01:53:19;95060.19;;;-3.72;94.44
82375;BME280;72005;50.496;15.798;2024-01-07T01:55:45;95058.63;;;-3.73;93.81
82375;BME280;72005;50.496;15.798;2024-01-07T01:58:12;95054.91;;;-3.70;93.58
82375;BME280;72005;50.496;15.798;2024-01-07T02:00:40;95049.41;;;-3.67;93.04
82375;BME280;72005;50.496;15.798;2024-01-07T02:03:06;95047.19;;;-3.70;92.64
82375;BME280;72005;50.496;15.798;2024-01-07T02:05:31;95042.50;;;-3.67;92.66
82375;BME280;72005;50.496;15.798;2024-01-07T02:07:57;95048.50;;;-3.59;93.03
82375;BME280;72005;50.496;15.798;2024-01-07T02:10:24;95045.69;;;-3.65;91.94
82375;BME280;72005;50.496;15.798;2024-01-07T02:12:50;95052.41;;;-3.64;92.02
82375;BME280;72005;50.496;15.798;2024-01-07T02:15:15;95053.13;;;-3.70;91.56
82375;BME280;72005;50.496;15.798;2024-01-07T02:17:41;95053.75;;;-3.68;91.95
82375;BME280;72005;50.496;15.798;2024-01-07T02:20:07;95041.63;;;-3.74;91.82
82375;BME280;72005;50.496;15.798;2024-01-07T02:22:33;95045.16;;;-3.75;91.99
82375;BME280;72005;50.496;15.798;2024-01-07T02:24:59;95036.41;;;-3.80;92.59
82375;BME280;72005;50.496;15.798;2024-01-07T02:27:24;95042.31;;;-3.80;92.61
82375;BME280;72005;50.496;15.798;2024-01-07T02:29:50;95053.22;;;-3.78;92.81
82375;BME280;72005;50.496;15.798;2024-01-07T02:32:15;95052.25;;;-3.77;92.69
82375;BME280;72005;50.496;15.798;2024-01-07T02:34:41;95052.44;;;-3.78;92.86
82375;BME280;72005;50.496;15.798;2024-01-07T02:37:07;95049.84;;;-3.78;92.13
82375;BME280;72005;50.496;15.798;2024-01-07T02:39:33;95044.91;;;-3.80;92.59
82375;BME280;72005;50.496;15.798;2024-01-07T02:41:58;95046.94;;;-3.75;92.39
82375;BME280;72005;50.496;15.798;2024-01-07T02:44:24;95038.81;;;-3.79;92.34
82375;BME280;72005;50.496;15.798;2024-01-07T02:46:50;95039.44;;;-3.77;92.88
82375;BME280;72005;50.496;15.798;2024-01-07T02:49:16;95043.56;;;-3.76;92.52
82375;BME280;72005;50.496;15.798;2024-01-07T02:51:41;95046.94;;;-3.75;92.63
82375;BME280;72005;50.496;15.798;2024-01-07T02:54:08;95035.53;;;-3.73;92.34
82375;BME280;72005;50.496;15.798;2024-01-07T02:56:33;95031.75;;;-3.77;92.21
82375;BME280;72005;50.496;15.798;2024-01-07T02:59:00;95039.25;;;-3.75;92.00
82375;BME280;72005;50.496;15.798;2024-01-07T03:01:25;95038.25;;;-3.74;92.51
82375;BME280;72005;50.496;15.798;2024-01-07T03:03:51;95042.00;;;-3.77;91.83
82375;BME280;72005;50.496;15.798;2024-01-07T03:06:17;95049.69;;;-3.77;92.56
82375;BME280;72005;50.496;15.798;2024-01-07T03:08:42;95055.78;;;-3.78;93.00
82375;BME280;72005;50.496;15.798;2024-01-07T03:11:08;95055.84;;;-3.71;93.54
82375;BME280;72005;50.496;15.798;2024-01-07T03:13:34;95039.66;;;-3.72;93.38
82375;BME280;72005;50.496;15.798;2024-01-07T03:16:00;95041.63;;;-3.74;93.04
82375;BME280;72005;50.496;15.798;2024-01-07T03:18:27;95056.84;;;-3.72;92.52
82375;BME280;72005;50.496;15.798;2024-01-07T03:20:52;95047.38;;;-3.72;92.44
82375;BME280;72005;50.496;15.798;2024-01-07T03:23:18;95058.09;;;-3.68;92.40
82375;BME280;72005;50.496;15.798;2024-01-07T03:25:44;95055.84;;;-3.71;92.28
82375;BME280;72005;50.496;15.798;2024-01-07T03:28:10;95057.38;;;-3.77;92.52
82375;BME280;72005;50.496;15.798;2024-01-07T03:30:36;95061.53;;;-3.76;91.87
82375;BME280;72005;50.496;15.798;2024-01-07T03:33:02;95051.63;;;-3.79;92.24
82375;BME280;72005;50.496;15.798;2024-01-07T03:35:28;95049.44;;;-3.82;91.55
82375;BME280;72005;50.496;15.798;2024-01-07T03:37:54;95050.38;;;-3.83;91.84
82375;BME280;72005;50.496;15.798;2024-01-07T03:40:19;95041.13;;;-3.84;91.11
82375;BME280;72005;50.496;15.798;2024-01-07T03:42:45;95053.31;;;-3.86;91.24
82375;BME280;72005;50.496;15.798;2024-01-07T03:45:11;95045.81;;;-3.88;91.41
82375;BME280;72005;50.496;15.798;2024-01-07T03:47:37;95052.53;;;-3.87;92.47
82375;BME280;72005;50.496;15.798;2024-01-07T03:50:02;95057.84;;;-3.88;92.23
82375;BME280;72005;50.496;15.798;2024-01-07T03:52:28;95064.28;;;-3.92;92.03
82375;BME280;72005;50.496;15.798;2024-01-07T03:54:55;95063.13;;;-3.90;91.96
82375;BME280;72005;50.496;15.798;2024-01-07T03:57:21;95050.50;;;-3.91;92.21
82375;BME280;72005;50.496;15.798;2024-01-07T03:59:46;95056.59;;;-3.92;91.77
82375;BME280;72005;50.496;15.798;2024-01-07T04:02:12;95056.94;;;-3.95;92.10
82375;BME280;72005;50.496;15.798;2024-01-07T04:04:42;95065.00;;;-3.98;91.75
82375;BME280;72005;50.496;15.798;2024-01-07T04:07:08;95072.69;;;-3.98;91.87
82375;BME280;72005;50.496;15.798;2024-01-07T04:09:33;95061.09;;;-3.94;92.20
82375;BME280;72005;50.496;15.798;2024-01-07T04:11:59;95064.91;;;-3.90;92.75
82375;BME280;72005;50.496;15.798;2024-01-07T04:14:24;95072.97;;;-3.93;92.24
82375;BME280;72005;50.496;15.798;2024-01-07T04:16:53;95069.16;;;-3.97;92.15
82375;BME280;72005;50.496;15.798;2024-01-07T04:19:18;95072.53;;;-3.97;92.47
82375;BME280;72005;50.496;15.798;2024-01-07T04:21:47;95077.31;;;-3.94;92.61
82375;BME280;72005;50.496;15.798;2024-01-07T04:24:13;95080.81;;;-3.95;92.55
82375;BME280;72005;50.496;15.798;2024-01-07T04:26:38;95078.19;;;-4.01;92.63
82375;BME280;72005;50.496;15.798;2024-01-07T04:29:04;95081.47;;;-4.07;92.50
82375;BME280;72005;50.496;15.798;2024-01-07T04:31:30;95081.91;;;-4.04;93.09
82375;BME280;72005;50.496;15.798;2024-01-07T04:33:55;95077.91;;;-4.06;92.71
82375;BME280;72005;50.496;15.798;2024-01-07T04:36:21;95081.81;;;-4.11;92.95
82375;BME280;72005;50.496;15.798;2024-01-07T04:38:47;95081.38;;;-4.14;92.77
82375;BME280;72005;50.496;15.798;2024-01-07T04:41:12;95085.69;;;-4.15;92.44
82375;BME280;72005;50.496;15.798;2024-01-07T04:43:38;95095.94;;;-4.15;92.48
82375;BME280;72005;50.496;15.798;2024-01-07T04:46:04;95084.88;;;-4.15;92.54
82375;BME280;72005;50.496;15.798;2024-01-07T04:48:30;95103.38;;;-4.20;92.22
82375;BME280;72005;50.496;15.798;2024-01-07T04:50:56;95101.41;;;-4.18;92.31
82375;BME280;72005;50.496;15.798;2024-01-07T04:53:21;95108.50;;;-4.20;92.47
82375;BME280;72005;50.496;15.798;2024-01-07T04:55:48;95116.81;;;-4.18;92.52
82375;BME280;72005;50.496;15.798;2024-01-07T04:58:13;95111.50;;;-4.16;92.73
82375;BME280;72005;50.496;15.798;2024-01-07T05:00:39;95119.38;;;-4.18;93.07
82375;BME280;72005;50.496;15.798;2024-01-07T05:03:05;95106.19;;;-4.15;93.30
82375;BME280;72005;50.496;15.798;2024-01-07T05:05:31;95120.63;;;-4.14;93.46
82375;BME280;72005;50.496;15.798;2024-01-07T05:07:56;95112.16;;;-4.14;93.35
82375;BME280;72005;50.496;15.798;2024-01-07T05:10:24;95107.69;;;-4.20;93.00
82375;BME280;72005;50.496;15.798;2024-01-07T05:12:50;95122.13;;;-4.19;93.41
82375;BME280;72005;50.496;15.798;2024-01-07T05:15:16;95122.97;;;-4.27;92.88
82375;BME280;72005;50.496;15.798;2024-01-07T05:17:41;95141.56;;;-4.25;92.56
82375;BME280;72005;50.496;15.798;2024-01-07T05:20:08;95147.47;;;-4.24;92.89
82375;BME280;72005;50.496;15.798;2024-01-07T05:22:34;95147.72;;;-4.34;92.54
82375;BME280;72005;50.496;15.798;2024-01-07T05:25:00;95148.09;;;-4.37;92.86
82375;BME280;72005;50.496;15.798;2024-01-07T05:27:25;95149.38;;;-4.41;92.43
82375;BME280;72005;50.496;15.798;2024-01-07T05:29:51;95162.97;;;-4.41;92.67
82375;BME280;72005;50.496;15.798;2024-01-07T05:32:19;95159.00;;;-4.43;92.67
82375;BME280;72005;50.496;15.798;2024-01-07T05:34:45;95159.00;;;-4.43;92.56
82375;BME280;72005;50.496;15.798;2024-01-07T05:37:10;95159.00;;;-4.43;92.72
82375;BME280;72005;50.496;15.798;2024-01-07T05:39:36;95158.41;;;-4.45;92.62
82375;BME280;72005;50.496;15.798;2024-01-07T05:42:02;95160.47;;;-4.49;93.13
82375;BME280;72005;50.496;15.798;2024-01-07T05:44:28;95171.56;;;-4.48;93.08
82375;BME280;72005;50.496;15.798;2024-01-07T05:46:53;95154.41;;;-4.48;93.15
82375;BME280;72005;50.496;15.798;2024-01-07T05:49:19;95151.06;;;-4.48;93.32
82375;BME280;72005;50.496;15.798;2024-01-07T05:51:45;95167.66;;;-4.44;93.36
82375;BME280;72005;50.496;15.798;2024-01-07T05:54:11;95159.97;;;-4.44;93.18
82375;BME280;72005;50.496;15.798;2024-01-07T05:56:39;95161.13;;;-4.47;93.09
82375;BME280;72005;50.496;15.798;2024-01-07T05:59:06;95160.97;;;-4.45;93.09
82375;BME280;72005;50.496;15.798;2024-01-07T06:01:32;95164.81;;;-4.49;92.96
82375;BME280;72005;50.496;15.798;2024-01-07T06:03:57;95180.19;;;-4.49;93.39
82375;BME280;72005;50.496;15.798;2024-01-07T06:06:23;95166.09;;;-4.45;93.18
82375;BME280;72005;50.496;15.798;2024-01-07T06:08:49;95177.91;;;-4.44;93.16
82375;BME280;72005;50.496;15.798;2024-01-07T06:11:14;95175.06;;;-4.49;93.34
82375;BME280;72005;50.496;15.798;2024-01-07T06:13:44;95186.75;;;-4.47;92.94
82375;BME280;72005;50.496;15.798;2024-01-07T06:16:10;95176.94;;;-4.43;93.74
82375;BME280;72005;50.496;15.798;2024-01-07T06:18:36;95170.22;;;-4.44;93.75
82375;BME280;72005;50.496;15.798;2024-01-07T06:21:01;95181.63;;;-4.47;93.64
82375;BME280;72005;50.496;15.798;2024-01-07T06:23:28;95167.03;;;-4.46;93.22
82375;BME280;72005;50.496;15.798;2024-01-07T06:25:53;95161.66;;;-4.51;93.18
82375;BME280;72005;50.496;15.798;2024-01-07T06:28:19;95177.81;;;-4.51;93.55
82375;BME280;72005;50.496;15.798;2024-01-07T06:30:45;95185.03;;;-4.55;93.44
82375;BME280;72005;50.496;15.798;2024-01-07T06:33:11;95188.56;;;-4.56;93.28
82375;BME280;72005;50.496;15.798;2024-01-07T06:35:38;95195.16;;;-4.61;93.47
82375;BME280;72005;50.496;15.798;2024-01-07T06:38:04;95210.84;;;-4.56;94.00
82375;BME280;72005;50.496;15.798;2024-01-07T06:40:29;95205.88;;;-4.58;94.13
82375;BME280;72005;50.496;15.798;2024-01-07T06:42:55;95200.47;;;-4.63;94.45
82375;BME280;72005;50.496;15.798;2024-01-07T06:45:21;95212.00;;;-4.67;94.25
82375;BME280;72005;50.496;15.798;2024-01-07T06:47:47;95215.56;;;-4.68;94.75
82375;BME280;72005;50.496;15.798;2024-01-07T06:50:13;95220.03;;;-4.70;95.09
82375;BME280;72005;50.496;15.798;2024-01-07T06:52:39;95231.91;;;-4.69;95.04
82375;BME280;72005;50.496;15.798;2024-01-07T06:55:04;95224.88;;;-4.75;94.95
82375;BME280;72005;50.496;15.798;2024-01-07T06:57:30;95209.84;;;-4.78;94.51
82375;BME280;72005;50.496;15.798;2024-01-07T06:59:56;95218.31;;;-4.78;94.71
82375;BME280;72005;50.496;15.798;2024-01-07T07:02:22;95223.78;;;-4.81;94.83
82375;BME280;72005;50.496;15.798;2024-01-07T07:04:47;95233.56;;;-4.84;94.41
82375;BME280;72005;50.496;15.798;2024-01-07T07:07:13;95237.44;;;-4.88;94.15
82375;BME280;72005;50.496;15.798;2024-01-07T07:09:39;95227.81;;;-4.86;94.19
82375;BME280;72005;50.496;15.798;2024-01-07T07:12:05;95225.25;;;-4.86;94.47
82375;BME280;72005;50.496;15.798;2024-01-07T07:14:33;95238.25;;;-4.88;94.13
82375;BME280;72005;50.496;15.798;2024-01-07T07:16:59;95242.72;;;-4.90;94.49
82375;BME280;72005;50.496;15.798;2024-01-07T07:19:24;95231.38;;;-4.95;94.43
82375;BME280;72005;50.496;15.798;2024-01-07T07:21:50;95234.59;;;-4.93;94.51
82375;BME280;72005;50.496;15.798;2024-01-07T07:24:15;95231.03;;;-4.92;94.48
82375;BME280;72005;50.496;15.798;2024-01-07T07:26:41;95244.94;;;-4.87;94.72
82375;BME280;72005;50.496;15.798;2024-01-07T07:29:10;95239.38;;;-4.90;94.47
82375;BME280;72005;50.496;15.798;2024-01-07T07:31:36;95248.28;;;-4.86;94.67
82375;BME280;72005;50.496;15.798;2024-01-07T07:34:05;95254.25;;;-4.86;94.29
82375;BME280;72005;50.496;15.798;2024-01-07T07:36:34;95260.78;;;-4.83;94.32
82375;BME280;72005;50.496;15.798;2024-01-07T07:38:59;95261.94;;;-4.86;94.37
82375;BME280;72005;50.496;15.798;2024-01-07T07:41:25;95265.28;;;-4.85;94.12
82375;BME280;72005;50.496;15.798;2024-01-07T07:43:51;95276.63;;;-4.80;93.69
82375;BME280;72005;50.496;15.798;2024-01-07T07:46:16;95279.97;;;-4.79;93.42
82375;BME280;72005;50.496;15.798;2024-01-07T07:48:42;95289.56;;;-4.81;93.60
82375;BME280;72005;50.496;15.798;2024-01-07T07:51:08;95297.91;;;-4.79;93.63
82375;BME280;72005;50.496;15.798;2024-01-07T07:53:34;95300.13;;;-4.76;93.48
82375;BME280;72005;50.496;15.798;2024-01-07T07:56:01;95309.41;;;-4.75;93.50
82375;BME280;72005;50.496;15.798;2024-01-07T07:58:26;95299.22;;;-4.83;93.82
82375;BME280;72005;50.496;15.798;2024-01-07T08:00:52;95310.53;;;-4.78;93.83
82375;BME280;72005;50.496;15.798;2024-01-07T08:03:18;95302.06;;;-4.86;93.37
82375;BME280;72005;50.496;15.798;2024-01-07T08:05:43;95316.97;;;-4.90;94.14
82375;BME280;72005;50.496;15.798;2024-01-07T08:08:09;95311.03;;;-4.82;94.07
82375;BME280;72005;50.496;15.798;2024-01-07T08:10:35;95324.50;;;-4.88;94.58
82375;BME280;72005;50.496;15.798;2024-01-07T08:13:01;95335.69;;;-4.89;94.46
82375;BME280;72005;50.496;15.798;2024-01-07T08:15:27;95323.56;;;-4.95;93.96
82375;BME280;72005;50.496;15.798;2024-01-07T08:17:53;95328.06;;;-4.97;94.06
82375;BME280;72005;50.496;15.798;2024-01-07T08:20:18;95334.13;;;-4.99;93.85
82375;BME280;72005;50.496;15.798;2024-01-07T08:22:47;95327.75;;;-4.94;94.25
82375;BME280;72005;50.496;15.798;2024-01-07T08:25:13;95328.69;;;-4.95;93.93
82375;BME280;72005;50.496;15.798;2024-01-07T08:27:41;95330.16;;;-5.01;93.76
82375;BME280;72005;50.496;15.798;2024-01-07T08:30:07;95326.47;;;-4.99;93.85
82375;BME280;72005;50.496;15.798;2024-01-07T08:32:33;95333.81;;;-4.95;93.89
82375;BME280;72005;50.496;15.798;2024-01-07T08:35:01;95335.56;;;-4.96;93.71
82375;BME280;72005;50.496;15.798;2024-01-07T08:37:26;95345.47;;;-4.93;93.75
82375;BME280;72005;50.496;15.798;2024-01-07T08:39:52;95341.66;;;-4.97;93.36
82375;BME280;72005;50.496;15.798;2024-01-07T08:42:17;95346.00;;;-4.97;93.54
82375;BME280;72005;50.496;15.798;2024-01-07T08:44:43;95348.84;;;-4.92;93.04
82375;BME280;72005;50.496;15.798;2024-01-07T08:47:09;95355.91;;;-4.94;93.33
82375;BME280;72005;50.496;15.798;2024-01-07T08:49:35;95356.53;;;-4.92;93.08
82375;BME280;72005;50.496;15.798;2024-01-07T08:52:01;95351.59;;;-4.94;93.01
82375;BME280;72005;50.496;15.798;2024-01-07T08:54:27;95360.69;;;-4.91;92.88
82375;BME280;72005;50.496;15.798;2024-01-07T08:56:52;95357.66;;;-4.95;92.42
82375;BME280;72005;50.496;15.798;2024-01-07T08:59:18;95346.63;;;-5.04;92.31
82375;BME280;72005;50.496;15.798;2024-01-07T09:01:44;95347.28;;;-5.02;92.72
82375;BME280;72005;50.496;15.798;2024-01-07T09:04:10;95353.84;;;-4.99;92.43
82375;BME280;72005;50.496;15.798;2024-01-07T09:06:35;95353.69;;;-5.06;92.02
82375;BME280;72005;50.496;15.798;2024-01-07T09:09:01;95350.63;;;-5.01;92.30
82375;BME280;72005;50.496;15.798;2024-01-07T09:11:27;95357.19;;;-5.07;91.97
82375;BME280;72005;50.496;15.798;2024-01-07T09:13:53;95345.69;;;-5.11;92.18
82375;BME280;72005;50.496;15.798;2024-01-07T09:16:18;95362.97;;;-5.05;92.35
82375;BME280;72005;50.496;15.798;2024-01-07T09:18:44;95361.72;;;-5.09;92.25
82375;BME280;72005;50.496;15.798;2024-01-07T09:21:10;95357.53;;;-5.10;92.49
82375;BME280;72005;50.496;15.798;2024-01-07T09:23:36;95373.06;;;-5.03;92.40
82375;BME280;72005;50.496;15.798;2024-01-07T09:26:02;95365.69;;;-5.06;91.83
82375;BME280;72005;50.496;15.798;2024-01-07T09:28:27;95375.63;;;-5.03;92.25
82375;BME280;72005;50.496;15.798;2024-01-07T09:30:53;95366.97;;;-5.02;92.27
82375;BME280;72005;50.496;15.798;2024-01-07T09:33:19;95367.13;;;-5.04;92.11
82375;BME280;72005;50.496;15.798;2024-01-07T09:35:45;95372.41;;;-5.05;91.42
82375;BME280;72005;50.496;15.798;2024-01-07T09:38:12;95370.16;;;-5.00;91.71
82375;BME280;72005;50.496;15.798;2024-01-07T09:40:38;95359.44;;;-5.04;91.53
82375;BME280;72005;50.496;15.798;2024-01-07T09:43:05;95377.69;;;-5.07;90.75
82375;BME280;72005;50.496;15.798;2024-01-07T09:45:31;95365.19;;;-5.02;91.03
82375;BME280;72005;50.496;15.798;2024-01-07T09:47:57;95364.88;;;-4.99;90.85
82375;BME280;72005;50.496;15.798;2024-01-07T09:50:22;95361.81;;;-4.94;91.08
82375;BME280;72005;50.496;15.798;2024-01-07T09:52:48;95365.81;;;-4.91;90.84
82375;BME280;72005;50.496;15.798;2024-01-07T09:55:24;95350.13;;;-4.88;90.87
82375;BME280;72005;50.496;15.798;2024-01-07T09:57:52;95357.47;;;-4.85;90.91
82375;BME280;72005;50.496;15.798;2024-01-07T10:00:18;95356.69;;;-4.86;90.74
82375;BME280;72005;50.496;15.798;2024-01-07T10:02:44;95361.28;;;-4.81;90.02
82375;BME280;72005;50.496;15.798;2024-01-07T10:05:10;95357.16;;;-4.82;89.00
82375;BME280;72005;50.496;15.798;2024-01-07T10:07:35;95361.94;;;-4.79;89.38
82375;BME280;72005;50.496;15.798;2024-01-07T10:10:13;95354.88;;;-4.77;89.50
82375;BME280;72005;50.496;15.798;2024-01-07T10:12:39;95357.72;;;-4.72;89.62
82375;BME280;72005;50.496;15.798;2024-01-07T10:15:05;95371.38;;;-4.71;88.73
82375;BME280;72005;50.496;15.798;2024-01-07T10:17:31;95376.75;;;-4.66;89.25
82375;BME280;72005;50.496;15.798;2024-01-07T10:19:56;95375.97;;;-4.67;88.67
82375;BME280;72005;50.496;15.798;2024-01-07T10:22:23;95378.50;;;-4.59;88.95
82375;BME280;72005;50.496;15.798;2024-01-07T10:24:51;95379.81;;;-4.63;88.44
82375;BME280;72005;50.496;15.798;2024-01-07T10:27:17;95381.53;;;-4.55;88.03
82375;BME280;72005;50.496;15.798;2024-01-07T10:29:43;95382.66;;;-4.58;87.74
82375;BME280;72005;50.496;15.798;2024-01-07T10:32:09;95383.59;;;-4.50;87.80
82375;BME280;72005;50.496;15.798;2024-01-07T10:34:35;95389.22;;;-4.55;87.43
82375;BME280;72005;50.496;15.798;2024-01-07T10:37:03;95392.28;;;-4.51;86.75
82375;BME280;72005;50.496;15.798;2024-01-07T10:39:30;95386.16;;;-4.50;86.86
82375;BME280;72005;50.496;15.798;2024-01-07T10:41:57;95384.84;;;-4.46;87.31
82375;BME280;72005;50.496;15.798;2024-01-07T10:44:29;95380.84;;;-4.49;86.89
82375;BME280;72005;50.496;15.798;2024-01-07T10:46:56;95386.97;;;-4.50;86.77
82375;BME280;72005;50.496;15.798;2024-01-07T10:49:26;95397.81;;;-4.40;86.74
82375;BME280;72005;50.496;15.798;2024-01-07T10:52:05;95384.81;;;-4.38;87.15
82375;BME280;72005;50.496;15.798;2024-01-07T10:54:32;95380.97;;;-4.34;87.12
82375;BME280;72005;50.496;15.798;2024-01-07T10:57:11;95382.25;;;-4.38;87.13
82375;BME280;72005;50.496;15.798;2024-01-07T10:59:40;95367.69;;;-4.38;87.12
82375;BME280;72005;50.496;15.798;2024-01-07T11:02:07;95383.38;;;-4.41;86.73
82375;BME280;72005;50.496;15.798;2024-01-07T11:07:28;95385.19;;;-4.49;85.20
82375;BME280;72005;50.496;15.798;2024-01-07T11:10:13;95390.28;;;-4.41;85.73
82375;BME280;72005;50.496;15.798;2024-01-07T11:12:40;95398.16;;;-4.43;84.92
82375;BME280;72005;50.496;15.798;2024-01-07T11:15:06;95390.47;;;-4.43;85.33
82375;BME280;72005;50.496;15.798;2024-01-07T11:20:01;95388.41;;;-4.56;85.16
82375;BME280;72005;50.496;15.798;2024-01-07T11:22:28;95399.78;;;-4.50;84.90
82375;BME280;72005;50.496;15.798;2024-01-07T11:24:57;95406.81;;;-4.52;84.79
82375;BME280;72005;50.496;15.798;2024-01-07T11:27:30;95411.47;;;-4.56;84.59
82375;BME280;72005;50.496;15.798;2024-01-07T11:30:05;95412.63;;;-4.58;84.93
82375;BME280;72005;50.496;15.798;2024-01-07T11:32:35;95409.56;;;-4.54;85.10
82375;BME280;72005;50.496;15.798;2024-01-07T11:35:01;95399.66;;;-4.57;84.27
82375;BME280;72005;50.496;15.798;2024-01-07T11:37:28;95405.91;;;-4.59;84.86
82375;BME280;72005;50.496;15.798;2024-01-07T11:39:56;95395.97;;;-4.62;84.39
82375;BME280;72005;50.496;15.798;2024-01-07T11:42:23;95404.78;;;-4.65;83.94
82375;BME280;72005;50.496;15.798;2024-01-07T11:44:51;95406.22;;;-4.62;84.40
82375;BME280;72005;50.496;15.798;2024-01-07T11:47:18;95389.13;;;-4.70;83.85
82375;BME280;72005;50.496;15.798;2024-01-07T11:49:44;95395.53;;;-4.66;83.42
82375;BME280;72005;50.496;15.798;2024-01-07T11:52:11;95406.56;;;-4.65;83.07
82375;BME280;72005;50.496;15.798;2024-01-07T11:54:40;95395.97;;;-4.62;82.74
82375;BME280;72005;50.496;15.798;2024-01-07T11:57:06;95396.94;;;-4.63;82.75
82375;BME280;72005;50.496;15.798;2024-01-07T11:59:35;95397.13;;;-4.65;82.61
82375;BME280;72005;50.496;15.798;2024-01-07T12:02:03;95405.28;;;-4.69;82.41
82375;BME280;72005;50.496;15.798;2024-01-07T12:04:32;95394.69;;;-4.66;82.95
82375;BME280;72005;50.496;15.798;2024-01-07T12:06:59;95403.34;;;-4.67;82.29
82375;BME280;72005;50.496;15.798;2024-01-07T12:09:25;95402.22;;;-4.65;82.87
82375;BME280;72005;50.496;15.798;2024-01-07T12:11:52;95405.59;;;-4.72;82.67
82375;BME280;72005;50.496;15.798;2024-01-07T12:14:18;95400.66;;;-4.66;82.55
82375;BME280;72005;50.496;15.798;2024-01-07T12:16:45;95406.72;;;-4.67;82.38
82375;BME280;72005;50.496;15.798;2024-01-07T12:19:12;95402.22;;;-4.65;82.08
82375;BME280;72005;50.496;15.798;2024-01-07T12:21:38;95397.44;;;-4.68;82.00
82375;BME280;72005;50.496;15.798;2024-01-07T12:24:04;95401.28;;;-4.72;81.20
82375;BME280;72005;50.496;15.798;2024-01-07T12:26:30;95405.00;;;-4.74;81.08
82375;BME280;72005;50.496;15.798;2024-01-07T12:28:59;95401.00;;;-4.77;80.91
82375;BME280;72005;50.496;15.798;2024-01-07T12:31:31;95404.34;;;-4.77;81.72
82375;BME280;72005;50.496;15.798;2024-01-07T12:33:57;95407.84;;;-4.78;81.73
82375;BME280;72005;50.496;15.798;2024-01-07T12:36:23;95400.69;;;-4.82;80.89
82375;BME280;72005;50.496;15.798;2024-01-07T12:38:49;95400.50;;;-4.81;81.31
82375;BME280;72005;50.496;15.798;2024-01-07T12:41:17;95407.41;;;-4.81;81.31
82375;BME280;72005;50.496;15.798;2024-01-07T12:43:43;95405.47;;;-4.79;80.90
82375;BME280;72005;50.496;15.798;2024-01-07T12:46:09;95415.72;;;-4.71;81.39
82375;BME280;72005;50.496;15.798;2024-01-07T12:48:35;95410.28;;;-4.76;80.81
82375;BME280;72005;50.496;15.798;2024-01-07T12:51:02;95413.28;;;-4.72;81.59